createdAt,value
2022-10-07T00:01:29.326Z,7.44
2022-10-07T00:04:00.944Z,7.43
2022-10-07T00:06:32.991Z,7.44
2022-10-07T00:09:04.597Z,7.51
2022-10-07T00:11:37.442Z,7.59
2022-10-07T00:14:09.033Z,7.60
2022-10-07T00:16:41.485Z,7.45
2022-10-07T00:19:13.181Z,7.41
2022-10-07T00:21:45.067Z,7.42
2022-10-07T00:24:16.655Z,7.40
2022-10-07T00:26:48.666Z,7.38
2022-10-07T00:29:20.277Z,7.43
2022-10-07T00:31:56.921Z,6.14
2022-10-07T00:34:28.868Z,7.33
2022-10-07T00:37:00.759Z,7.33
2022-10-07T00:39:32.347Z,6.88
2022-10-07T00:42:04.166Z,7.32
2022-10-07T00:44:35.686Z,7.28
2022-10-07T00:47:07.192Z,7.30
2022-10-07T00:49:41.146Z,7.29
2022-10-07T00:52:13.031Z,7.22
2022-10-07T00:54:44.602Z,7.11
2022-10-07T00:57:16.157Z,7.16
2022-10-07T00:59:47.662Z,7.14
2022-10-07T01:02:19.626Z,7.05
2022-10-07T01:04:51.281Z,7.01
2022-10-07T01:07:23.247Z,7.04
2022-10-07T01:09:54.769Z,7.03
2022-10-07T01:12:26.640Z,7.04
2022-10-07T01:14:58.141Z,6.99
2022-10-07T01:17:29.960Z,6.98
2022-10-07T01:20:01.441Z,7.00
2022-10-07T01:22:33.415Z,6.99
2022-10-07T01:25:04.933Z,6.96
2022-10-07T01:27:37.231Z,7.01
2022-10-07T01:30:08.716Z,6.97
2022-10-07T01:32:40.511Z,6.84
2022-10-07T01:35:12.008Z,6.88
2022-10-07T01:37:44.045Z,6.84
2022-10-07T01:40:15.685Z,6.84
2022-10-07T01:42:47.548Z,6.81
2022-10-07T01:45:21.480Z,6.88
2022-10-07T01:47:53.343Z,6.80
2022-10-07T01:50:24.895Z,6.77
2022-10-07T01:52:56.823Z,6.81
2022-10-07T01:55:28.471Z,6.79
2022-10-07T01:58:00.253Z,6.73
2022-10-07T02:00:31.748Z,6.72
2022-10-07T02:03:03.616Z,6.75
2022-10-07T02:05:35.544Z,6.69
2022-10-07T02:08:07.894Z,6.63
2022-10-07T02:10:39.384Z,6.64
2022-10-07T02:13:12.682Z,6.65
2022-10-07T02:15:44.250Z,6.51
2022-10-07T02:18:15.825Z,6.55
2022-10-07T02:20:47.679Z,6.55
2022-10-07T02:23:19.195Z,6.55
2022-10-07T02:25:51.037Z,6.54
2022-10-07T02:28:23.136Z,6.53
2022-10-07T02:30:55.224Z,6.54
2022-10-07T02:33:27.707Z,6.52
2022-10-07T02:35:59.610Z,6.43
2022-10-07T02:38:31.099Z,6.48
2022-10-07T02:41:06.345Z,6.49
2022-10-07T02:43:37.876Z,6.45
2022-10-07T02:46:09.755Z,6.46
2022-10-07T02:48:42.147Z,6.49
2022-10-07T02:51:20.666Z,6.50
2022-10-07T02:53:52.695Z,6.47
2022-10-07T02:56:24.230Z,6.41
2022-10-07T02:58:55.789Z,6.44
2022-10-07T03:01:27.686Z,6.45
2022-10-07T03:03:59.348Z,6.48
2022-10-07T03:06:31.309Z,6.44
2022-10-07T03:09:02.837Z,6.44
2022-10-07T03:11:34.646Z,6.43
2022-10-07T03:14:06.188Z,6.43
2022-10-07T03:16:38.087Z,6.44
2022-10-07T03:19:10.791Z,6.39
2022-10-07T03:21:42.346Z,6.37
2022-10-07T03:24:13.858Z,6.37
2022-10-07T03:26:45.493Z,6.38
2022-10-07T03:29:17.354Z,6.34
2022-10-07T03:31:49.376Z,6.28
2022-10-07T03:34:20.878Z,6.32
2022-10-07T03:36:52.683Z,6.28
2022-10-07T03:39:24.242Z,6.28
2022-10-07T03:41:57.321Z,6.23
2022-10-07T03:44:28.852Z,6.21
2022-10-07T03:47:00.750Z,6.20
2022-10-07T03:49:32.439Z,6.05
2022-10-07T03:52:04.523Z,6.04
2022-10-07T03:54:36.017Z,6.09
2022-10-07T03:57:27.819Z,6.00
2022-10-07T03:59:59.344Z,5.96
2022-10-07T04:02:31.298Z,4.64
2022-10-07T04:05:02.839Z,6.02
2022-10-07T04:07:34.697Z,6.00
2022-10-07T04:10:06.192Z,6.02
2022-10-07T04:12:38.226Z,6.00
2022-10-07T04:15:13.691Z,5.98
2022-10-07T04:17:45.756Z,5.88
2022-10-07T04:20:17.522Z,5.87
2022-10-07T04:22:49.346Z,5.87
2022-10-07T04:25:37.868Z,5.80
2022-10-07T04:28:09.440Z,5.72
2022-10-07T04:30:44.028Z,5.72
2022-10-07T04:33:15.527Z,5.68
2022-10-07T04:35:47.117Z,5.65
2022-10-07T04:38:18.691Z,5.70
2022-10-07T04:40:50.556Z,5.70
2022-10-07T04:43:27.268Z,5.68
2022-10-07T04:45:58.780Z,5.67
2022-10-07T04:48:30.286Z,5.71
2022-10-07T04:51:02.378Z,5.71
2022-10-07T04:53:33.947Z,5.67
2022-10-07T04:56:05.797Z,5.70
2022-10-07T04:58:37.711Z,5.68
2022-10-07T05:01:09.680Z,5.71
2022-10-07T05:03:41.899Z,5.71
2022-10-07T05:06:13.449Z,5.74
2022-10-07T05:08:45.288Z,5.68
2022-10-07T05:11:17.162Z,5.65
2022-10-07T05:13:48.871Z,5.59
2022-10-07T05:16:20.808Z,5.59
2022-10-07T05:18:52.384Z,5.58
2022-10-07T05:21:24.278Z,5.57
2022-10-07T05:23:55.835Z,5.58
2022-10-07T05:26:28.211Z,5.57
2022-10-07T05:28:59.700Z,5.63
2022-10-07T05:31:31.678Z,5.63
2022-10-07T05:34:03.275Z,5.65
2022-10-07T05:36:35.105Z,5.67
2022-10-07T05:39:06.990Z,5.68
2022-10-07T05:41:45.724Z,5.71
2022-10-07T05:44:17.871Z,5.77
2022-10-07T05:46:49.568Z,5.79
2022-10-07T05:49:21.609Z,5.81
2022-10-07T05:51:53.117Z,5.87
2022-10-07T05:54:25.047Z,5.91
2022-10-07T05:56:56.836Z,5.98
2022-10-07T05:59:28.357Z,6.07
2022-10-07T06:02:00.141Z,6.15
2022-10-07T06:04:32.252Z,6.17
2022-10-07T06:07:04.106Z,6.24
2022-10-07T06:09:54.367Z,6.31
2022-10-07T06:12:44.497Z,6.35
2022-10-07T06:15:16.315Z,4.69
2022-10-07T06:17:48.457Z,6.57
2022-10-07T06:20:20.711Z,6.63
2022-10-07T06:22:52.198Z,6.84
2022-10-07T06:25:24.040Z,6.95
2022-10-07T06:27:56.341Z,7.06
2022-10-07T06:30:29.494Z,7.13
2022-10-07T06:33:01.164Z,7.26
2022-10-07T06:35:33.011Z,7.36
2022-10-07T06:38:04.537Z,7.53
2022-10-07T06:40:36.374Z,7.69
2022-10-07T06:43:07.911Z,7.76
2022-10-07T06:45:40.009Z,7.92
2022-10-07T06:48:11.583Z,8.01
2022-10-07T06:50:52.975Z,8.27
2022-10-07T06:53:24.736Z,8.31
2022-10-07T06:55:58.265Z,8.43
2022-10-07T06:58:29.859Z,8.55
2022-10-07T07:01:01.758Z,8.47
2022-10-07T07:03:33.798Z,8.68
2022-10-07T07:06:05.332Z,8.86
2022-10-07T07:08:37.310Z,9.05
2022-10-07T07:11:28.818Z,9.20
2022-10-07T07:14:00.643Z,9.39
2022-10-07T07:16:32.275Z,9.58
2022-10-07T07:19:05.093Z,9.70
2022-10-07T07:21:38.174Z,9.88
2022-10-07T07:24:10.059Z,10.08
2022-10-07T07:26:42.027Z,10.25
2022-10-07T07:29:15.039Z,10.52
2022-10-07T07:31:46.561Z,10.83
2022-10-07T07:34:18.391Z,10.87
2022-10-07T07:36:51.692Z,10.93
2022-10-07T07:39:23.630Z,10.58
2022-10-07T07:41:55.120Z,11.02
2022-10-07T07:44:31.274Z,11.21
2022-10-07T07:47:06.454Z,11.48
2022-10-07T07:49:38.335Z,11.62
2022-10-07T07:52:10.050Z,11.83
2022-10-07T07:54:42.337Z,11.94
2022-10-07T07:57:13.833Z,12.06
2022-10-07T07:59:46.157Z,12.15
2022-10-07T08:02:17.749Z,12.43
2022-10-07T08:04:49.605Z,12.45
2022-10-07T08:07:21.092Z,12.73
2022-10-07T08:09:52.887Z,12.99
2022-10-07T08:12:24.568Z,13.09
2022-10-07T08:14:56.294Z,13.40
2022-10-07T08:17:27.822Z,13.41
2022-10-07T08:19:59.713Z,14.03
2022-10-07T08:22:31.230Z,13.76
2022-10-07T08:25:03.088Z,13.98
2022-10-07T08:27:34.681Z,14.03
2022-10-07T08:30:07.389Z,14.11
2022-10-07T08:32:38.887Z,14.60
2022-10-07T08:35:10.743Z,14.35
2022-10-07T08:37:42.426Z,14.61
2022-10-07T08:40:14.627Z,15.23
2022-10-07T08:42:46.238Z,15.14
2022-10-07T08:45:18.056Z,15.23
2022-10-07T08:47:49.715Z,15.41
2022-10-07T08:50:22.276Z,15.16
2022-10-07T08:52:53.800Z,15.73
2022-10-07T08:55:25.750Z,15.76
2022-10-07T08:58:04.048Z,15.96
2022-10-07T09:00:35.906Z,16.32
2022-10-07T09:03:07.489Z,16.44
2022-10-07T09:05:40.851Z,16.66
2022-10-07T09:08:12.456Z,16.69
2022-10-07T09:10:44.194Z,16.64
2022-10-07T09:13:16.072Z,17.03
2022-10-07T09:15:47.952Z,17.19
2022-10-07T09:18:19.543Z,17.16
2022-10-07T09:20:52.379Z,17.81
2022-10-07T09:23:24.153Z,17.63
2022-10-07T09:25:56.155Z,17.72
2022-10-07T09:28:27.759Z,17.78
2022-10-07T09:30:59.421Z,17.58
2022-10-07T09:33:30.948Z,17.61
2022-10-07T09:36:02.777Z,17.52
2022-10-07T09:38:34.322Z,17.92
2022-10-07T09:41:19.796Z,18.07
2022-10-07T09:43:51.359Z,18.03
2022-10-07T09:46:24.507Z,18.12
2022-10-07T09:48:56.063Z,18.69
2022-10-07T09:51:29.632Z,18.82
2022-10-07T09:54:02.983Z,18.49
2022-10-07T09:56:34.981Z,18.59
2022-10-07T09:59:06.485Z,18.90
2022-10-07T10:01:38.333Z,19.17
2022-10-07T10:04:09.915Z,19.34
2022-10-07T10:06:41.738Z,19.52
2022-10-07T10:09:18.096Z,19.34
2022-10-07T10:11:52.146Z,19.46
2022-10-07T10:14:23.646Z,19.56
2022-10-07T10:16:55.308Z,19.45
2022-10-07T10:19:26.791Z,19.39
2022-10-07T10:21:58.725Z,19.77
2022-10-07T10:24:49.518Z,20.32
2022-10-07T10:27:21.013Z,19.99
2022-10-07T10:29:52.823Z,19.91
2022-10-07T10:32:24.495Z,19.75
2022-10-07T10:34:56.367Z,19.99
2022-10-07T10:37:27.892Z,19.61
2022-10-07T10:39:59.770Z,19.42
2022-10-07T10:42:31.445Z,19.33
2022-10-07T10:45:08.048Z,19.86
2022-10-07T10:47:39.550Z,19.63
2022-10-07T10:50:12.577Z,19.54
2022-10-07T10:52:45.423Z,19.65
2022-10-07T10:55:18.101Z,20.18
2022-10-07T10:57:49.694Z,19.88
2022-10-07T11:00:21.611Z,20.07
2022-10-07T11:02:53.170Z,20.13
2022-10-07T11:05:24.997Z,19.87
2022-10-07T11:07:56.479Z,20.14
2022-10-07T11:10:28.379Z,20.05
2022-10-07T11:12:59.971Z,20.15
2022-10-07T11:15:31.833Z,20.38
2022-10-07T11:18:03.323Z,19.35
2022-10-07T11:20:35.174Z,19.20
2022-10-07T11:23:06.883Z,19.53
2022-10-07T11:25:38.684Z,19.91
2022-10-07T11:28:10.398Z,19.76
2022-10-07T11:30:42.316Z,20.10
2022-10-07T11:33:13.819Z,19.86
2022-10-07T11:35:45.662Z,19.96
2022-10-07T11:38:17.177Z,19.98
2022-10-07T11:40:48.972Z,19.85
2022-10-07T11:43:20.476Z,19.49
2022-10-07T11:45:52.580Z,19.44
2022-10-07T11:48:24.096Z,19.69
2022-10-07T11:50:55.786Z,19.91
2022-10-07T11:53:27.578Z,19.78
2022-10-07T11:55:59.167Z,19.66
2022-10-07T11:58:31.996Z,19.46
2022-10-07T12:01:03.674Z,19.40
2022-10-07T12:03:36.864Z,19.01
2022-10-07T12:06:10.246Z,19.26
2022-10-07T12:08:42.352Z,18.86
2022-10-07T12:11:16.992Z,18.94
2022-10-07T12:13:48.899Z,19.17
2022-10-07T12:16:20.540Z,19.24
2022-10-07T12:18:52.469Z,18.93
2022-10-07T12:21:23.965Z,19.25
2022-10-07T12:23:55.993Z,19.17
2022-10-07T12:26:28.793Z,19.24
2022-10-07T12:29:00.638Z,19.16
2022-10-07T12:31:32.196Z,19.06
2022-10-07T12:34:04.213Z,18.85
2022-10-07T12:36:35.706Z,18.79
2022-10-07T12:39:12.085Z,19.06
2022-10-07T12:41:45.199Z,18.95
2022-10-07T12:44:17.131Z,19.10
2022-10-07T12:46:49.253Z,19.09
2022-10-07T12:49:21.060Z,19.10
2022-10-07T12:51:52.662Z,18.63
2022-10-07T12:54:24.488Z,18.87
2022-10-07T12:56:56.001Z,18.83
2022-10-07T12:59:46.958Z,18.79
2022-10-07T13:02:18.675Z,18.76
2022-10-07T13:04:51.489Z,19.01
2022-10-07T13:07:23.008Z,19.35
2022-10-07T13:09:54.954Z,19.45
2022-10-07T13:12:26.880Z,19.45
2022-10-07T13:14:58.820Z,19.26
2022-10-07T13:17:30.311Z,19.07
2022-10-07T13:20:02.562Z,19.23
2022-10-07T13:22:34.138Z,18.80
2022-10-07T13:25:06.277Z,19.16
2022-10-07T13:27:38.555Z,19.25
2022-10-07T13:30:10.594Z,19.27
2022-10-07T13:32:42.186Z,19.31
2022-10-07T13:35:14.077Z,19.11
2022-10-07T13:37:45.578Z,19.19
2022-10-07T13:40:17.458Z,19.28
2022-10-07T13:42:49.132Z,19.31
2022-10-07T13:45:21.135Z,19.29
2022-10-07T13:47:52.634Z,19.17
2022-10-07T13:50:24.820Z,19.31
2022-10-07T13:52:56.321Z,19.14
2022-10-07T13:55:28.756Z,19.43
2022-10-07T13:58:02.246Z,19.54
2022-10-07T14:00:33.820Z,19.14
2022-10-07T14:03:05.762Z,19.24
2022-10-07T14:05:37.290Z,19.23
2022-10-07T14:08:09.196Z,19.80
2022-10-07T14:10:40.683Z,19.70
2022-10-07T14:13:12.619Z,19.74
2022-10-07T14:15:44.177Z,19.86
2022-10-07T14:18:15.729Z,20.04
2022-10-07T14:20:47.790Z,20.00
2022-10-07T14:23:19.339Z,20.00
2022-10-07T14:25:50.863Z,19.94
2022-10-07T14:28:23.023Z,19.96
2022-10-07T14:31:13.145Z,19.70
2022-10-07T14:34:03.988Z,20.13
2022-10-07T14:36:36.178Z,19.89
2022-10-07T14:39:08.195Z,19.89
2022-10-07T14:41:39.691Z,19.65
2022-10-07T14:44:11.555Z,19.58
2022-10-07T14:46:43.036Z,19.62
2022-10-07T14:49:14.938Z,19.79
2022-10-07T14:51:47.199Z,19.90
2022-10-07T14:54:18.753Z,19.47
2022-10-07T14:56:50.257Z,19.10
2022-10-07T14:59:23.255Z,19.22
2022-10-07T15:01:54.796Z,19.11
2022-10-07T15:04:26.395Z,18.67
2022-10-07T15:06:58.089Z,18.35
2022-10-07T15:09:30.014Z,18.32
2022-10-07T15:12:01.528Z,18.04
2022-10-07T15:14:33.400Z,17.83
2022-10-07T15:17:06.154Z,17.79
2022-10-07T15:19:37.720Z,17.62
2022-10-07T15:22:09.639Z,17.54
2022-10-07T15:24:41.252Z,17.34
2022-10-07T15:27:12.785Z,17.14
2022-10-07T15:29:44.272Z,17.17
2022-10-07T15:32:16.094Z,17.11
2022-10-07T15:34:48.769Z,17.05
2022-10-07T15:37:20.647Z,16.97
2022-10-07T15:39:52.151Z,16.86
2022-10-07T15:42:23.904Z,16.82
2022-10-07T15:44:55.601Z,16.73
2022-10-07T15:47:28.462Z,16.68
2022-10-07T15:49:59.952Z,16.58
2022-10-07T15:52:31.750Z,16.50
2022-10-07T15:55:07.935Z,16.40
2022-10-07T15:57:40.077Z,16.36
2022-10-07T16:00:11.559Z,16.20
2022-10-07T16:02:43.830Z,16.10
2022-10-07T16:05:15.578Z,16.01
2022-10-07T16:07:47.443Z,15.91
2022-10-07T16:10:18.946Z,15.83
2022-10-07T16:12:50.768Z,15.72
2022-10-07T16:15:22.743Z,15.63
2022-10-07T16:17:54.306Z,15.51
2022-10-07T16:20:25.800Z,15.43
2022-10-07T16:22:57.583Z,15.35
2022-10-07T16:25:29.191Z,15.25
2022-10-07T16:28:19.916Z,15.17
2022-10-07T16:30:52.198Z,15.06
2022-10-07T16:33:24.099Z,14.84
2022-10-07T16:35:55.679Z,14.63
2022-10-07T16:38:27.492Z,14.53
2022-10-07T16:40:58.985Z,14.43
2022-10-07T16:43:30.785Z,14.40
2022-10-07T16:46:03.319Z,14.34
2022-10-07T16:48:34.870Z,14.24
2022-10-07T16:51:06.374Z,13.98
2022-10-07T16:53:38.242Z,13.78
2022-10-07T16:56:10.791Z,13.68
2022-10-07T16:58:42.313Z,13.64
2022-10-07T17:01:13.917Z,13.47
2022-10-07T17:03:50.373Z,13.42
2022-10-07T17:06:21.908Z,13.52
2022-10-07T17:08:53.441Z,13.50
2022-10-07T17:11:31.652Z,13.53
2022-10-07T17:14:04.033Z,13.47
2022-10-07T17:16:36.947Z,13.29
2022-10-07T17:19:08.475Z,13.17
2022-10-07T17:21:42.307Z,13.04
2022-10-07T17:24:13.810Z,12.94
2022-10-07T17:26:45.355Z,12.89
2022-10-07T17:29:18.196Z,12.90
2022-10-07T17:31:51.125Z,12.90
2022-10-07T17:34:22.699Z,12.86
2022-10-07T17:36:54.589Z,12.80
2022-10-07T17:39:26.111Z,12.77
2022-10-07T17:41:57.949Z,12.71
2022-10-07T17:44:31.907Z,12.62
2022-10-07T17:47:04.280Z,12.53
2022-10-07T17:49:35.909Z,12.46
2022-10-07T17:52:07.718Z,12.41
2022-10-07T17:54:39.274Z,12.32
2022-10-07T17:57:10.788Z,12.26
2022-10-07T17:59:42.259Z,12.13
2022-10-07T18:02:14.221Z,12.00
2022-10-07T18:04:46.232Z,11.87
2022-10-07T18:07:18.218Z,11.75
2022-10-07T18:09:49.971Z,11.72
2022-10-07T18:12:40.466Z,11.68
2022-10-07T18:15:21.084Z,11.73
2022-10-07T18:17:52.676Z,11.79
2022-10-07T18:20:25.626Z,11.77
2022-10-07T18:22:57.625Z,11.85
2022-10-07T18:25:29.164Z,11.85
2022-10-07T18:28:02.747Z,11.94
2022-10-07T18:30:34.298Z,12.00
2022-10-07T18:33:06.374Z,11.95
2022-10-07T18:35:37.848Z,11.98
2022-10-07T18:38:09.691Z,12.02
2022-10-07T18:40:41.312Z,12.03
2022-10-07T18:43:13.118Z,12.02
2022-10-07T18:45:44.671Z,11.98
2022-10-07T18:48:16.571Z,11.89
2022-10-07T18:50:48.068Z,11.81
2022-10-07T18:53:19.887Z,11.72
2022-10-07T18:55:51.504Z,11.73
2022-10-07T18:58:23.324Z,11.73
2022-10-07T19:00:54.925Z,11.67
2022-10-07T19:03:27.056Z,11.61
2022-10-07T19:05:58.573Z,11.50
2022-10-07T19:08:30.388Z,11.52
2022-10-07T19:11:01.869Z,11.51
2022-10-07T19:13:48.781Z,11.52
2022-10-07T19:16:20.683Z,11.52
2022-10-07T19:18:52.403Z,11.50
2022-10-07T19:21:24.789Z,11.42
2022-10-07T19:23:57.046Z,11.46
2022-10-07T19:26:29.413Z,11.45
2022-10-07T19:29:00.874Z,11.46
2022-10-07T19:31:32.942Z,11.42
2022-10-07T19:34:04.588Z,11.40
2022-10-07T19:36:36.493Z,11.39
2022-10-07T19:39:08.031Z,11.42
2022-10-07T19:41:41.488Z,11.44
2022-10-07T19:44:13.109Z,11.42
2022-10-07T19:46:45.014Z,11.43
2022-10-07T19:49:16.513Z,11.42
2022-10-07T19:51:48.406Z,11.35
2022-10-07T19:54:19.892Z,11.32
2022-10-07T19:56:51.785Z,11.30
2022-10-07T19:59:23.906Z,11.27
2022-10-07T20:02:00.199Z,11.23
2022-10-07T20:04:32.537Z,11.19
2022-10-07T20:07:04.032Z,11.17
2022-10-07T20:09:35.548Z,11.11
2022-10-07T20:12:07.454Z,11.08
2022-10-07T20:14:38.928Z,11.02
2022-10-07T20:17:10.904Z,10.95
2022-10-07T20:19:42.428Z,10.92
2022-10-07T20:22:14.447Z,10.88
2022-10-07T20:24:45.983Z,10.86
2022-10-07T20:27:18.882Z,10.84
2022-10-07T20:30:02.166Z,10.82
2022-10-07T20:32:34.666Z,10.75
2022-10-07T20:35:08.416Z,10.70
2022-10-07T20:37:40.245Z,10.66
2022-10-07T20:40:30.690Z,10.62
2022-10-07T20:43:03.667Z,10.58
2022-10-07T20:45:55.592Z,10.58
2022-10-07T20:48:29.320Z,10.57
2022-10-07T20:51:01.179Z,10.54
2022-10-07T20:53:32.658Z,10.48
2022-10-07T20:56:06.795Z,10.48
2022-10-07T20:58:38.264Z,10.49
2022-10-07T21:01:10.189Z,10.49
2022-10-07T21:03:41.771Z,10.53
2022-10-07T21:06:13.417Z,10.55
2022-10-07T21:08:47.207Z,10.56
2022-10-07T21:11:18.688Z,10.55
2022-10-07T21:13:50.176Z,10.53
2022-10-07T21:16:22.046Z,10.50
2022-10-07T21:18:53.611Z,10.53
2022-10-07T21:21:25.489Z,10.57
2022-10-07T21:23:56.949Z,10.57
2022-10-07T21:26:28.695Z,10.51
2022-10-07T21:29:00.158Z,10.53
2022-10-07T21:31:31.971Z,10.50
2022-10-07T21:34:07.845Z,10.49
2022-10-07T21:36:39.892Z,10.46
2022-10-07T21:39:11.405Z,10.43
2022-10-07T21:41:43.415Z,10.38
2022-10-07T21:44:14.986Z,10.35
2022-10-07T21:46:47.073Z,10.34
2022-10-07T21:49:18.637Z,10.26
2022-10-07T21:51:50.568Z,10.24
2022-10-07T21:54:22.057Z,10.22
2022-10-07T21:56:54.118Z,10.20
2022-10-07T21:59:25.638Z,10.15
2022-10-07T22:01:57.498Z,10.10
2022-10-07T22:04:30.700Z,10.08
2022-10-07T22:07:21.430Z,10.01
2022-10-07T22:09:52.943Z,10.02
2022-10-07T22:12:24.994Z,10.05
2022-10-07T22:14:56.464Z,10.01
2022-10-07T22:17:28.278Z,9.98
2022-10-07T22:20:00.201Z,9.98
2022-10-07T22:22:32.314Z,9.95
2022-10-07T22:25:03.818Z,9.96
2022-10-07T22:27:35.669Z,9.97
2022-10-07T22:30:09.070Z,9.94
2022-10-07T22:32:40.882Z,9.92
2022-10-07T22:35:27.410Z,9.92
2022-10-07T22:37:59.301Z,9.90
2022-10-07T22:40:30.828Z,9.94
2022-10-07T22:43:02.615Z,9.91
2022-10-07T22:45:36.216Z,9.90
2022-10-07T22:48:08.276Z,9.89
2022-10-07T22:50:40.219Z,9.86
2022-10-07T22:53:11.759Z,9.84
2022-10-07T22:55:43.569Z,9.87
2022-10-07T22:58:15.166Z,9.82
2022-10-07T23:00:49.588Z,9.83
2022-10-07T23:03:21.123Z,9.81
2022-10-07T23:05:52.695Z,9.82
2022-10-07T23:08:24.228Z,9.82
2022-10-07T23:10:55.977Z,9.83
2022-10-07T23:13:27.444Z,9.85
2022-10-07T23:16:00.226Z,9.83
2022-10-07T23:18:32.100Z,9.79
2022-10-07T23:21:04.024Z,9.77
2022-10-07T23:23:38.557Z,9.74
2022-10-07T23:26:10.226Z,9.73
2022-10-07T23:28:41.805Z,9.70
2022-10-07T23:31:17.447Z,9.69
2022-10-07T23:33:48.951Z,9.64
2022-10-07T23:36:20.779Z,9.59
2022-10-07T23:38:52.289Z,9.56
2022-10-07T23:41:24.495Z,9.54
2022-10-07T23:43:55.980Z,9.55
2022-10-07T23:46:27.560Z,9.52
2022-10-07T23:48:59.129Z,9.39
2022-10-07T23:51:32.512Z,9.40
2022-10-07T23:54:04.103Z,9.39
2022-10-07T23:56:36.040Z,9.45
2022-10-07T23:59:07.903Z,9.42
